GOSP

Podor Airport

Podor, Senegal
METAR GOSP 222100Z 00000KT 2000 DU NSC 32/19 Q1010
Observed Flight Rules
Oct-22 @ 21:00 UTC (20 minutes ago) Instrument Flight Rules
Visibility Clouds Conditions
1,996 meters
  • Clear skies
  • Dust
Temperatures Readings
Current 32°C / 90°F
Dewpoint 19°C / 66°F
Humidity 46%
Altimeter 29.82" Hg
Pressure 1010 hPa
Elevation 7
METAR GOSP 222100Z 00000KT 2000 DU NSC 32/19 Q1010
Observed Flight Rules
Oct-22 @ 21:00 UTC
(20 minutes ago)
IFR
Clouds
  • Clear skies
Conditions
  • Dust
Temperature Dewpoint
32°C / 90°F 19°C / 66°F
Humidity Altimeter Pressure
46% 29.82" Hg 1010 hPa